Terminal Aerodrome Forecast
Issued by NWS

Home | Current Version | Previous Version | Text Only | Print | Product List | Glossary On
Versions: 1 2 3 4 5 6 7 8 9 10 11 12 13 14
000
FTUS44 KSJT 020500
TAFBBD
TAF
KBBD 020520Z 0206/0306 15008KT P6SM FEW250
     FM021100 16009KT P6SM SCT015
     FM021600 18010KT P6SM SCT025
     FM022000 23012KT P6SM VCTS SCT060CB
     FM030000 34010KT P6SM SCT060=

USA.gov is the U.S. government's official web portal to all federal, state and local government web resources and services.